Time;durP1;ratioP1;P1;durP2;ratioP2;P2;SDS_P1;SDS_P2;PMS_P1;PMS_P2;Temp;Humidity;BMP_temperature;BMP_pressure;BME280_temperature;BME280_humidity;BME280_pressure;Samples;Min_cycle;Max_cycle;Signal;HPM_P1;HPM_P2
2022/03/17 00:00:09;;;;;;;3.63;1.77;;;11.40;71.60;;;;;;5113458;28;20122;-72
2022/03/17 00:02:35;;;;;;;2.78;1.80;;;11.40;71.60;;;;;;5113201;28;20036;-72
2022/03/17 00:05:02;;;;;;;3.13;1.90;;;11.30;71.60;;;;;;5113352;28;20112;-72
2022/03/17 00:07:30;;;;;;;4.00;2.28;;;11.30;71.60;;;;;;5113206;28;20072;-72
2022/03/17 00:09:56;;;;;;;3.92;2.20;;;11.30;71.60;;;;;;5113158;28;20557;-72
2022/03/17 00:12:22;;;;;;;2.80;1.67;;;11.30;71.60;;;;;;5078543;28;20050;-71
2022/03/17 00:14:47;;;;;;;2.85;1.77;;;11.30;71.60;;;;;;5113633;28;20040;-72
2022/03/17 00:17:13;;;;;;;3.17;1.80;;;11.40;71.70;;;;;;5113518;28;20039;-71
2022/03/17 00:19:39;;;;;;;2.90;1.90;;;11.30;71.70;;;;;;5113376;28;20389;-71
2022/03/17 00:22:09;;;;;;;3.15;2.05;;;11.30;71.70;;;;;;5093152;28;20101;-72
2022/03/17 00:24:38;;;;;;;2.60;1.83;;;11.30;71.80;;;;;;5113088;28;20118;-72
2022/03/17 00:27:05;;;;;;;3.55;2.13;;;11.30;71.80;;;;;;5113124;28;20477;-72
2022/03/17 00:29:33;;;;;;;2.83;1.70;;;11.30;71.90;;;;;;5112774;28;20043;-72
2022/03/17 00:31:59;;;;;;;2.80;1.65;;;11.30;72.00;;;;;;5113366;28;20050;-72
2022/03/17 00:34:25;;;;;;;3.10;1.80;;;11.30;72.00;;;;;;5112773;28;20050;-72
2022/03/17 00:36:50;;;;;;;3.90;2.05;;;11.30;72.10;;;;;;5094524;28;20052;-72
2022/03/17 00:39:16;;;;;;;2.60;1.73;;;11.30;72.10;;;;;;5112702;28;20093;-72
2022/03/17 00:41:43;;;;;;;2.80;1.80;;;11.20;72.10;;;;;;5112746;28;20036;-72
2022/03/17 00:44:10;;;;;;;3.50;2.20;;;11.20;72.80;;;;;;5113299;28;20050;-72
2022/03/17 00:46:36;;;;;;;2.80;1.85;;;11.20;72.20;;;;;;5095147;28;20502;-72
2022/03/17 00:49:03;;;;;;;3.75;2.03;;;11.20;72.20;;;;;;5094952;28;20050;-72
2022/03/17 00:51:29;;;;;;;3.75;2.15;;;11.20;72.20;;;;;;5094610;28;20486;-72
2022/03/17 00:53:54;;;;;;;3.08;2.03;;;11.20;72.30;;;;;;5112638;28;20096;-72
2022/03/17 00:56:20;;;;;;;2.83;1.90;;;11.20;72.30;;;;;;5112750;28;20074;-72
2022/03/17 00:58:48;;;;;;;3.17;1.90;;;11.20;72.30;;;;;;5094158;28;20044;-72
2022/03/17 01:01:15;;;;;;;3.42;1.95;;;11.20;72.40;;;;;;5112536;28;20081;-72
2022/03/17 01:03:43;;;;;;;3.75;2.10;;;11.20;72.40;;;;;;5112623;28;20063;-72
2022/03/17 01:06:10;;;;;;;3.05;1.98;;;11.20;72.50;;;;;;5095258;28;20040;-72
2022/03/17 01:08:36;;;;;;;3.10;1.90;;;11.20;72.50;;;;;;5094651;28;20070;-72
2022/03/17 01:11:03;;;;;;;3.35;1.80;;;11.20;72.60;;;;;;5113120;28;20507;-71
2022/03/17 01:13:29;;;;;;;3.15;1.90;;;11.20;72.70;;;;;;5113047;28;20043;-71
2022/03/17 01:15:56;;;;;;;3.58;2.03;;;11.10;72.70;;;;;;5092765;28;20439;-71
2022/03/17 01:18:22;;;;;;;2.72;1.80;;;11.00;72.70;;;;;;5112922;28;20096;-72
2022/03/17 01:20:48;;;;;;;4.03;2.33;;;11.10;72.80;;;;;;5112691;28;20048;-72
2022/03/17 01:23:14;;;;;;;3.25;1.92;;;11.10;72.90;;;;;;5112399;28;20031;-72
2022/03/17 01:25:40;;;;;;;3.22;2.05;;;11.00;72.80;;;;;;5112393;28;20046;-71
2022/03/17 01:28:06;;;;;;;3.33;2.05;;;11.00;72.80;;;;;;5093927;28;20036;-72
2022/03/17 01:30:32;;;;;;;3.53;2.10;;;11.00;72.90;;;;;;5077026;28;20055;-71
2022/03/17 01:32:57;;;;;;;3.60;2.00;;;11.00;72.90;;;;;;5112592;28;20088;-72
2022/03/17 01:35:23;;;;;;;3.30;1.85;;;11.00;73.00;;;;;;5093844;28;20485;-72
2022/03/17 01:37:49;;;;;;;3.17;1.95;;;11.00;73.00;;;;;;5112596;28;20039;-72
2022/03/17 01:40:15;;;;;;;4.07;2.38;;;11.00;73.00;;;;;;5092142;28;20101;-72
2022/03/17 01:42:41;;;;;;;3.35;1.92;;;11.00;73.00;;;;;;5111936;28;20470;-72
2022/03/17 01:45:08;;;;;;;3.88;1.95;;;11.00;73.70;;;;;;5093683;28;20047;-72
2022/03/17 01:47:36;;;;;;;2.70;1.80;;;11.00;73.00;;;;;;5115512;28;20040;-72
2022/03/17 01:50:08;;;;;;;3.08;1.88;;;11.00;73.00;;;;;;5115689;28;20050;-71
2022/03/17 01:52:34;;;;;;;;;;;11.10;73.10;;;;;;5115844;28;20050;-72
2022/03/17 01:55:00;;;;;;;2.55;1.60;;;11.10;72.90;;;;;;5097085;28;19918;-72
2022/03/17 01:57:26;;;;;;;3.20;1.90;;;11.10;72.80;;;;;;5097611;28;20039;-72
2022/03/17 01:59:53;;;;;;;3.38;1.90;;;11.10;72.70;;;;;;5115648;28;20077;-72
2022/03/17 02:02:19;;;;;;;3.28;2.10;;;11.20;72.70;;;;;;5115333;28;20040;-72
2022/03/17 02:04:47;;;;;;;3.72;2.30;;;11.20;72.60;;;;;;5115352;28;20400;-72
2022/03/17 02:07:14;;;;;;;4.90;2.55;;;11.30;72.60;;;;;;5097510;28;20511;-72
2022/03/17 02:09:41;;;;;;;3.67;2.33;;;11.30;72.50;;;;;;5097776;28;20055;-71
2022/03/17 02:14:50;;;;;;;;;;;11.40;72.40;;;;;;5115709;28;20039;-71
2022/03/17 02:17:16;;;;;;;3.67;2.25;;;11.40;72.30;;;;;;5097705;28;20340;-71
2022/03/17 02:19:42;;;;;;;3.97;2.50;;;11.40;72.30;;;;;;5115225;28;20484;-71
2022/03/17 02:22:12;;;;;;;3.65;2.20;;;11.40;72.20;;;;;;5115547;28;20095;-72
2022/03/17 02:27:20;;;;;;;5.15;2.88;;;11.50;72.40;;;;;;5115023;28;20447;-71
2022/03/17 02:29:46;;;;;;;6.18;2.90;;;11.50;72.30;;;;;;5114912;28;20028;-72
2022/03/17 02:32:12;;;;;;;4.05;2.50;;;11.50;72.90;;;;;;5096693;28;20112;-72
2022/03/17 02:34:38;;;;;;;5.43;3.60;;;11.60;72.30;;;;;;5115386;28;20044;-71
2022/03/17 02:37:05;;;;;;;5.88;3.40;;;11.60;72.30;;;;;;5096778;28;20449;-71
2022/03/17 02:39:31;;;;;;;6.47;4.07;;;11.60;72.30;;;;;;5114636;28;20043;-72
2022/03/17 02:41:57;;;;;;;6.03;3.72;;;11.60;72.30;;;;;;5096705;28;20032;-72
2022/03/17 02:44:22;;;;;;;6.40;3.78;;;11.60;72.30;;;;;;5079357;28;20044;-72
2022/03/17 02:46:48;;;;;;;7.60;4.20;;;11.70;72.40;;;;;;5096293;28;20138;-72
2022/03/17 02:49:15;;;;;;;6.93;3.88;;;11.70;72.40;;;;;;5114594;28;20043;-71
2022/03/17 02:51:42;;;;;;;6.50;4.43;;;11.70;73.10;;;;;;5095366;28;20123;-71
2022/03/17 02:54:08;;;;;;;7.40;3.95;;;11.70;72.50;;;;;;5096428;28;20092;-72
2022/03/17 02:56:34;;;;;;;6.70;4.07;;;11.70;72.50;;;;;;5114319;28;20481;-71
2022/03/17 02:59:00;;;;;;;5.88;3.40;;;11.70;72.60;;;;;;5114420;28;20126;-72
2022/03/17 03:01:25;;;;;;;5.72;3.53;;;11.70;72.70;;;;;;5114663;28;20039;-72
2022/03/17 03:03:51;;;;;;;6.68;4.07;;;11.80;72.80;;;;;;5096371;28;20416;-72
2022/03/17 03:06:17;;;;;;;6.63;3.85;;;11.70;72.90;;;;;;5114381;28;20040;-71
2022/03/17 03:08:42;;;;;;;7.25;4.03;;;11.70;73.00;;;;;;5114253;28;20084;-72
2022/03/17 03:11:08;;;;;;;6.70;4.20;;;11.70;73.10;;;;;;5114266;28;20394;-71
2022/03/17 03:13:34;;;;;;;6.40;4.05;;;11.70;73.10;;;;;;5096331;28;20046;-72
2022/03/17 03:16:01;;;;;;;6.85;4.22;;;11.70;73.10;;;;;;5114287;28;20074;-71
2022/03/17 03:18:27;;;;;;;8.13;5.13;;;11.70;73.20;;;;;;5096033;28;20074;-71
2022/03/17 03:20:53;;;;;;;9.30;5.50;;;11.70;73.40;;;;;;5113920;28;20078;-71
2022/03/17 03:23:19;;;;;;;9.13;4.90;;;11.70;73.50;;;;;;5114636;28;20035;-70
2022/03/17 03:25:44;;;;;;;9.80;6.22;;;11.60;73.70;;;;;;5114227;28;20377;-71
2022/03/17 03:28:11;;;;;;;8.95;6.00;;;11.50;73.90;;;;;;5114321;28;20039;-71
2022/03/17 03:30:37;;;;;;;9.30;6.00;;;11.40;74.30;;;;;;5113947;28;20082;-71
2022/03/17 03:33:08;;;;;;;8.50;5.45;;;11.40;74.60;;;;;;5113762;28;20055;-71
2022/03/17 03:38:14;;;;;;;7.97;4.82;;;11.30;75.30;;;;;;5113655;28;20053;-71
2022/03/17 03:40:39;;;;;;;7.22;4.30;;;11.20;75.60;;;;;;5095358;28;20138;-71
2022/03/17 03:43:05;;;;;;;6.75;4.28;;;11.10;75.90;;;;;;5095478;28;20092;-71
2022/03/17 03:45:31;;;;;;;6.65;4.68;;;11.00;76.10;;;;;;5113704;28;20669;-71
2022/03/17 03:47:57;;;;;;;7.03;4.43;;;11.00;76.40;;;;;;5114181;28;20073;-71
2022/03/17 03:50:25;;;;;;;7.28;4.55;;;11.00;76.70;;;;;;5114048;28;20477;-71
2022/03/17 03:52:51;;;;;;;7.05;4.28;;;10.90;76.90;;;;;;5079042;28;20075;-72
2022/03/17 03:55:17;;;;;;;7.22;4.47;;;10.90;77.10;;;;;;5094018;28;20067;-72
2022/03/17 03:57:46;;;;;;;7.97;4.60;;;10.80;77.40;;;;;;5113599;28;20036;-71
2022/03/17 04:02:57;;;;;;;6.47;4.30;;;10.70;77.90;;;;;;5113302;28;20032;-71
2022/03/17 04:05:28;;;;;;;6.45;4.10;;;10.70;78.20;;;;;;5095253;28;20115;-71
2022/03/17 04:07:55;;;;;;;6.30;4.13;;;10.70;78.50;;;;;;5113611;28;20058;-71
2022/03/17 04:10:20;;;;;;;5.90;3.72;;;10.60;78.70;;;;;;5094361;28;20042;-71
2022/03/17 04:12:46;;;;;;;5.82;3.70;;;10.50;79.00;;;;;;5094138;28;20044;-71
2022/03/17 04:15:12;;;;;;;5.05;3.08;;;10.40;79.20;;;;;;5094974;28;20519;-71
2022/03/17 04:17:38;;;;;;;4.78;2.80;;;10.40;79.50;;;;;;5113201;28;20409;-71
2022/03/17 04:20:05;;;;;;;3.22;2.28;;;10.20;79.80;;;;;;5094634;28;20047;-72
2022/03/17 04:22:31;;;;;;;3.40;2.00;;;10.10;80.00;;;;;;5113429;28;20037;-71
2022/03/17 04:24:57;;;;;;;2.53;1.80;;;10.00;80.20;;;;;;5113119;28;20114;-70
2022/03/17 04:27:23;;;;;;;2.33;1.52;;;9.90;80.30;;;;;;5094846;28;20557;-71
2022/03/17 04:29:49;;;;;;;2.45;1.45;;;9.90;80.60;;;;;;5113374;28;20043;-71
2022/03/17 04:32:15;;;;;;;2.88;1.45;;;9.80;80.60;;;;;;5113037;28;20401;-71
2022/03/17 04:34:40;;;;;;;2.33;1.33;;;9.80;80.70;;;;;;5113155;28;20035;-71
2022/03/17 04:37:06;;;;;;;2.22;1.27;;;9.70;80.70;;;;;;5113113;28;20048;-71
2022/03/17 04:39:32;;;;;;;3.40;1.30;;;9.70;80.70;;;;;;5112855;28;20055;-71
2022/03/17 04:41:58;;;;;;;1.70;1.13;;;9.60;80.80;;;;;;5077774;28;20484;-70
2022/03/17 04:44:24;;;;;;;2.15;1.20;;;9.60;80.80;;;;;;5114116;28;20472;-70
2022/03/17 04:46:50;;;;;;;1.95;1.23;;;9.60;80.80;;;;;;5112873;28;20036;-71
2022/03/17 04:49:16;;;;;;;2.22;1.40;;;9.50;80.80;;;;;;5094422;28;20050;-71
2022/03/17 04:51:42;;;;;;;2.53;1.60;;;9.60;81.00;;;;;;5093916;28;20035;-71
2022/03/17 04:54:09;;;;;;;1.88;1.40;;;9.40;81.00;;;;;;5112554;28;20100;-71
2022/03/17 04:56:35;;;;;;;3.10;1.67;;;9.40;81.00;;;;;;5112642;28;20504;-71
2022/03/17 04:59:00;;;;;;;2.45;1.40;;;9.40;81.10;;;;;;5077288;28;20036;-71
2022/03/17 05:01:26;;;;;;;2.88;1.60;;;9.40;81.20;;;;;;5112946;28;20101;-71
2022/03/17 05:03:53;;;;;;;2.42;1.30;;;9.30;81.10;;;;;;5113144;28;20485;-71
2022/03/17 05:06:19;;;;;;;1.30;1.10;;;9.30;81.10;;;;;;5094625;28;20039;-71
2022/03/17 05:08:45;;;;;;;2.50;1.20;;;9.30;81.00;;;;;;5112527;28;20043;-71
2022/03/17 05:11:13;;;;;;;1.33;1.00;;;9.30;81.00;;;;;;5094610;28;20036;-71
2022/03/17 05:13:39;;;;;;;1.60;1.00;;;9.30;81.00;;;;;;5112470;28;20126;-71
2022/03/17 05:16:06;;;;;;;1.65;1.00;;;9.30;80.90;;;;;;5112519;28;20047;-71
2022/03/17 05:18:33;;;;;;;3.55;1.45;;;9.30;80.90;;;;;;5112571;28;20472;-71
2022/03/17 05:20:59;;;;;;;3.10;1.50;;;9.30;80.90;;;;;;5113774;28;20067;-71
2022/03/17 05:23:25;;;;;;;3.72;1.90;;;9.20;80.80;;;;;;5116647;28;20039;-71
2022/03/17 05:25:52;;;;;;;3.17;1.90;;;9.20;80.90;;;;;;5097859;28;20040;-71
2022/03/17 05:28:19;;;;;;;4.85;2.40;;;9.30;81.00;;;;;;5116089;28;20092;-71
2022/03/17 05:30:45;;;;;;;4.32;2.10;;;9.20;81.00;;;;;;5115932;28;20401;-71
2022/03/17 05:33:12;;;;;;;5.47;2.72;;;9.10;81.00;;;;;;5081054;28;20123;-71
2022/03/17 05:35:39;;;;;;;4.75;2.38;;;9.10;81.10;;;;;;5097677;28;20048;-71
2022/03/17 05:38:05;;;;;;;4.03;1.98;;;9.10;81.10;;;;;;5116325;28;20454;-71
2022/03/17 05:40:31;;;;;;;4.85;2.05;;;9.10;81.10;;;;;;5115768;28;20071;-71
2022/03/17 05:42:59;;;;;;;3.45;1.70;;;9.10;81.20;;;;;;5097357;28;20463;-71
2022/03/17 05:45:26;;;;;;;2.78;1.50;;;9.00;81.10;;;;;;5115909;28;20118;-72
2022/03/17 05:47:56;;;;;;;3.90;1.75;;;9.00;81.10;;;;;;5097463;28;20043;-71
2022/03/17 05:50:25;;;;;;;3.85;1.80;;;9.00;81.10;;;;;;5116142;28;20088;-72
2022/03/17 05:52:51;;;;;;;4.90;2.15;;;9.00;81.10;;;;;;5080745;28;20047;-71
2022/03/17 05:55:21;;;;;;;3.92;1.95;;;9.00;81.10;;;;;;5115685;28;20040;-71
2022/03/17 05:57:48;;;;;;;5.65;1.73;;;8.90;81.10;;;;;;5115454;28;20180;-71
2022/03/17 06:00:18;;;;;;;3.47;1.40;;;8.90;81.00;;;;;;5096096;28;20044;-72
2022/03/17 06:02:45;;;;;;;3.78;1.60;;;8.90;81.10;;;;;;5115352;28;20513;-72
2022/03/17 06:05:12;;;;;;;2.85;1.40;;;8.80;81.10;;;;;;5097145;28;20032;-71
2022/03/17 06:07:44;;;;;;;4.07;1.20;;;8.80;81.10;;;;;;5096977;28;20044;-72
2022/03/17 06:10:12;;;;;;;1.85;1.05;;;8.80;81.00;;;;;;5115639;28;20111;-72
2022/03/17 06:12:39;;;;;;;3.80;1.40;;;8.80;81.00;;;;;;5115442;28;20035;-71
2022/03/17 06:15:07;;;;;;;3.88;1.35;;;8.80;80.90;;;;;;5098514;28;20035;-71
2022/03/17 06:17:39;;;;;;;2.58;1.10;;;8.80;80.90;;;;;;5116674;28;20036;-72
2022/03/17 06:20:06;;;;;;;1.63;1.00;;;8.80;80.90;;;;;;5096275;28;20044;-71
2022/03/17 06:22:32;;;;;;;2.13;0.82;;;8.70;80.80;;;;;;5096929;28;20040;-72
2022/03/17 06:24:57;;;;;;;1.10;0.70;;;8.70;80.80;;;;;;5095426;28;20496;-71
2022/03/17 06:27:24;;;;;;;3.25;0.80;;;8.70;80.90;;;;;;5115228;28;20039;-71
2022/03/17 06:29:50;;;;;;;1.75;0.60;;;8.70;80.80;;;;;;5080094;28;20511;-72
2022/03/17 06:32:16;;;;;;;1.40;0.55;;;8.70;80.80;;;;;;5114670;28;20040;-72
2022/03/17 06:34:42;;;;;;;2.40;0.95;;;8.70;80.80;;;;;;5096997;28;20046;-72
2022/03/17 06:37:09;;;;;;;2.10;0.70;;;8.70;80.80;;;;;;5096885;28;20043;-71
2022/03/17 06:39:35;;;;;;;2.67;1.20;;;8.70;80.80;;;;;;5114848;28;20047;-72
2022/03/17 06:42:00;;;;;;;2.10;0.95;;;8.60;80.80;;;;;;5114869;28;20044;-71
2022/03/17 06:44:26;;;;;;;2.75;0.93;;;8.60;80.90;;;;;;5096538;28;20036;-71
2022/03/17 06:46:52;;;;;;;1.75;0.70;;;8.60;80.90;;;;;;5096598;28;20046;-72
2022/03/17 06:49:17;;;;;;;2.20;0.60;;;8.60;80.80;;;;;;5114741;28;20063;-72
2022/03/17 06:51:43;;;;;;;4.22;1.10;;;8.60;80.80;;;;;;5114601;28;20055;-72
2022/03/17 06:54:09;;;;;;;2.25;0.70;;;8.60;80.70;;;;;;5114655;28;20050;-72
2022/03/17 06:56:35;;;;;;;1.15;0.45;;;8.60;80.70;;;;;;5114735;28;20499;-71
2022/03/17 06:59:00;;;;;;;1.45;0.75;;;8.60;80.60;;;;;;5096244;28;20063;-72
2022/03/17 07:01:27;;;;;;;1.75;0.60;;;8.60;80.50;;;;;;5114723;28;20043;-72
2022/03/17 07:03:54;;;;;;;1.27;0.50;;;8.70;80.40;;;;;;5114289;28;20473;-73
2022/03/17 12:04:24;;;;;;;2.03;1.15;;;11.00;69.10;;;;;;5171640;27;20134;-69
2022/03/17 12:06:55;;;;;;;1.48;1.08;;;11.60;73.70;;;;;;5150486;27;20047;-69
2022/03/17 12:09:32;;;;;;;1.63;1.00;;;11.70;74.10;;;;;;5151074;27;20039;-69
2022/03/17 12:11:58;;;;;;;1.60;1.00;;;11.80;74.10;;;;;;5150149;27;20092;-69
2022/03/17 12:14:24;;;;;;;1.80;1.10;;;11.80;74.10;;;;;;5115111;27;20039;-69
2022/03/17 12:17:12;;;;;;;1.75;1.00;;;11.80;74.00;;;;;;5131655;27;20047;-69
2022/03/17 12:19:43;;;;;;;3.03;0.90;;;11.90;74.10;;;;;;5150359;27;20092;-70
2022/03/17 12:22:12;;;;;;;2.43;0.90;;;11.90;73.90;;;;;;5132396;27;20039;-68
2022/03/17 12:24:48;;;;;;;2.78;0.88;;;11.90;73.70;;;;;;5150188;27;20481;-68
2022/03/17 12:27:26;;;;;;;2.20;1.00;;;11.90;73.90;;;;;;5149802;27;20042;-68
2022/03/17 12:29:59;;;;;;;1.70;0.73;;;11.90;73.70;;;;;;5149983;27;20066;-68
2022/03/17 12:32:27;;;;;;;0.57;0.57;;;12.00;73.60;;;;;;5149756;27;20485;-69
2022/03/17 12:34:55;;;;;;;1.00;0.60;;;12.20;73.40;;;;;;5149971;27;20095;-68
2022/03/17 12:37:24;;;;;;;0.85;0.60;;;12.30;73.00;;;;;;5150333;27;20034;-68
2022/03/17 12:39:52;;;;;;;1.75;0.80;;;12.40;72.40;;;;;;5131284;27;20050;-68
2022/03/17 12:42:28;;;;;;;1.52;0.70;;;12.40;72.30;;;;;;5131984;27;20426;-68
2022/03/17 12:45:01;;;;;;;0.82;0.50;;;12.50;72.30;;;;;;5150167;27;20088;-68
2022/03/17 12:47:28;;;;;;;2.28;0.82;;;12.70;71.60;;;;;;5150094;27;20043;-68
2022/03/17 12:49:56;;;;;;;3.28;0.90;;;13.10;70.90;;;;;;5131157;27;20035;-68
2022/03/17 12:52:25;;;;;;;1.38;0.57;;;13.30;70.20;;;;;;5149922;27;20057;-68
2022/03/17 12:54:54;;;;;;;0.93;0.60;;;13.50;69.60;;;;;;5131175;27;20489;-68
2022/03/17 12:57:24;;;;;;;1.25;0.82;;;13.60;69.00;;;;;;5150179;27;20035;-69
2022/03/17 12:59:57;;;;;;;0.95;0.60;;;13.70;68.60;;;;;;5132964;27;20046;-69
2022/03/17 13:02:26;;;;;;;1.55;0.70;;;13.60;68.70;;;;;;5132415;27;20030;-68
2022/03/17 13:04:54;;;;;;;1.25;0.70;;;13.80;68.80;;;;;;5138203;27;20043;-69
2022/03/17 13:07:23;;;;;;;2.83;0.75;;;14.00;68.20;;;;;;5135446;28;20067;-69
2022/03/17 13:09:49;;;;;;;0.98;0.40;;;14.20;67.80;;;;;;5135503;28;20031;-68
2022/03/17 13:15:04;;;;;;;0.80;0.57;;;14.30;67.10;;;;;;5135646;28;20497;-69
2022/03/17 13:17:36;;;;;;;1.40;0.60;;;14.30;67.00;;;;;;5135748;28;20043;-69
2022/03/17 13:20:06;;;;;;;0.75;0.70;;;14.30;66.90;;;;;;5115683;28;20439;-68
2022/03/17 13:22:33;;;;;;;1.27;0.70;;;14.30;66.80;;;;;;5117033;28;20502;-69
2022/03/17 13:25:02;;;;;;;1.40;0.70;;;14.20;66.70;;;;;;5117485;28;20039;-69
2022/03/17 13:27:28;;;;;;;1.83;0.70;;;14.20;67.00;;;;;;5135246;28;20043;-69
2022/03/17 13:29:54;;;;;;;5.15;1.00;;;14.10;66.80;;;;;;5116983;28;20474;-69
2022/03/17 13:32:21;;;;;;;1.60;0.88;;;14.30;66.90;;;;;;5135594;28;20035;-68
2022/03/17 13:34:57;;;;;;;1.38;0.82;;;14.50;66.10;;;;;;5135433;28;20118;-68
2022/03/17 13:37:34;;;;;;;3.20;0.63;;;14.50;65.20;;;;;;5117312;28;20043;-68
2022/03/17 13:40:03;;;;;;;1.17;0.70;;;14.30;65.30;;;;;;5134889;28;20046;-68
2022/03/17 13:42:29;;;;;;;1.33;0.50;;;14.30;65.60;;;;;;5134731;28;20043;-68
2022/03/17 13:44:55;;;;;;;1.42;0.60;;;14.10;65.90;;;;;;5134586;28;20046;-68
2022/03/17 13:47:25;;;;;;;0.73;0.50;;;14.10;65.90;;;;;;5134508;28;20042;-67
2022/03/17 13:50:08;;;;;;;2.63;0.63;;;14.20;66.00;;;;;;5134327;28;20039;-67
2022/03/17 13:52:34;;;;;;;1.13;0.60;;;14.40;65.70;;;;;;5135132;28;20043;-67
2022/03/17 13:55:00;;;;;;;1.83;0.63;;;14.50;65.00;;;;;;5135250;28;20377;-67
2022/03/17 13:57:25;;;;;;;2.72;0.77;;;14.30;65.10;;;;;;5134680;28;20482;-68
2022/03/17 13:59:51;;;;;;;0.88;0.60;;;14.20;65.10;;;;;;5135078;28;20035;-68
2022/03/17 14:02:21;;;;;;;0.90;0.35;;;14.00;65.30;;;;;;5134401;28;20460;-67
2022/03/17 14:04:55;;;;;;;0.67;0.47;;;14.00;65.60;;;;;;5134797;28;20047;-67
2022/03/17 14:07:22;;;;;;;2.20;0.45;;;13.90;65.80;;;;;;5134948;28;20039;-68
2022/03/17 14:09:48;;;;;;;2.10;0.43;;;13.90;65.80;;;;;;5117110;28;20035;-67
2022/03/17 14:12:14;;;;;;;1.42;0.70;;;13.90;65.50;;;;;;5134766;28;20476;-68
2022/03/17 14:14:40;;;;;;;1.65;0.57;;;13.90;65.40;;;;;;5115547;27;20047;-68
2022/03/17 14:17:09;;;;;;;1.30;0.57;;;13.80;65.50;;;;;;5115220;28;20405;-68
2022/03/17 14:19:34;;;;;;;2.25;0.75;;;13.80;65.70;;;;;;5116815;28;20183;-69
2022/03/17 14:24:44;;;;;;;1.10;0.65;;;13.70;65.50;;;;;;5134292;28;20486;-68
2022/03/17 14:27:10;;;;;;;0.47;0.43;;;13.60;65.40;;;;;;5134498;28;20031;-68
2022/03/17 14:29:36;;;;;;;0.95;0.43;;;13.50;65.50;;;;;;5114078;28;20089;-68
2022/03/17 14:32:03;;;;;;;1.30;0.68;;;13.40;65.40;;;;;;5134094;28;20047;-68
2022/03/17 14:34:28;;;;;;;1.25;0.77;;;13.40;65.40;;;;;;5115847;28;20035;-68
2022/03/17 14:36:54;;;;;;;2.58;0.50;;;13.40;65.90;;;;;;5115755;28;20043;-68
2022/03/17 14:39:20;;;;;;;3.65;0.70;;;13.30;65.20;;;;;;5134244;28;20095;-67
2022/03/17 14:41:47;;;;;;;0.90;0.50;;;13.40;65.20;;;;;;5115708;28;20052;-68
2022/03/17 14:44:13;;;;;;;1.85;0.57;;;13.40;64.80;;;;;;5115161;28;20059;-67
2022/03/17 14:46:39;;;;;;;0.95;0.60;;;13.40;64.70;;;;;;5134104;28;20062;-66
2022/03/17 14:49:08;;;;;;;0.90;0.38;;;13.40;64.60;;;;;;5133952;28;20473;-67
2022/03/17 14:51:41;;;;;;;0.57;0.40;;;13.60;64.20;;;;;;5081492;28;20043;-66
2022/03/17 14:54:07;;;;;;;0.85;0.50;;;13.60;64.00;;;;;;5082093;28;20050;-66
2022/03/17 14:56:32;;;;;;;0.77;0.40;;;13.40;64.00;;;;;;5115431;28;20059;-66
2022/03/17 14:58:58;;;;;;;0.57;0.40;;;13.30;64.30;;;;;;5116202;28;20481;-67
2022/03/17 15:01:24;;;;;;;2.65;0.55;;;13.30;64.30;;;;;;5134095;28;20050;-67
2022/03/17 15:03:51;;;;;;;0.25;0.25;;;13.30;64.30;;;;;;5081620;28;20035;-66
2022/03/17 15:06:19;;;;;;;0.40;0.32;;;13.40;64.20;;;;;;5098292;28;20058;-66
2022/03/17 15:08:46;;;;;;;0.90;0.35;;;13.40;64.00;;;;;;5133392;28;20107;-66
2022/03/17 15:11:14;;;;;;;0.93;0.40;;;13.40;63.80;;;;;;5115273;28;20508;-66
2022/03/17 15:13:41;;;;;;;0.98;0.50;;;13.40;63.70;;;;;;5133675;28;20138;-66
2022/03/17 15:16:08;;;;;;;0.60;0.30;;;13.40;63.60;;;;;;5098216;28;20432;-67
2022/03/17 15:18:34;;;;;;;0.50;0.40;;;13.50;63.70;;;;;;5098268;28;20060;-68
2022/03/17 15:21:03;;;;;;;0.50;0.38;;;13.60;63.20;;;;;;5080125;28;20086;-68
2022/03/17 15:23:31;;;;;;;0.70;0.30;;;13.60;62.80;;;;;;5115162;28;20094;-69
2022/03/17 15:25:57;;;;;;;1.02;0.22;;;13.60;62.80;;;;;;5133742;28;20045;-68
2022/03/17 15:31:09;;;;;;;1.27;0.40;;;13.60;62.90;;;;;;5132694;28;20550;-69
2022/03/17 15:33:35;;;;;;;0.30;0.30;;;13.70;62.70;;;;;;5115166;28;20047;-68
2022/03/17 15:36:01;;;;;;;1.05;0.20;;;13.70;62.60;;;;;;5080910;28;20111;-68
2022/03/17 15:38:27;;;;;;;0.52;0.40;;;13.90;62.20;;;;;;5133388;28;20027;-68
2022/03/17 15:40:53;;;;;;;0.20;0.20;;;14.00;61.70;;;;;;5097873;28;20152;-68
2022/03/17 15:43:19;;;;;;;0.63;0.30;;;14.00;61.50;;;;;;5096848;28;20130;-68
2022/03/17 15:45:45;;;;;;;0.57;0.30;;;13.90;61.50;;;;;;5133359;28;20043;-68
2022/03/17 15:48:14;;;;;;;0.30;0.30;;;13.90;61.50;;;;;;5133180;28;20553;-68
2022/03/17 15:50:42;;;;;;;0.20;0.20;;;13.80;61.40;;;;;;5081052;28;20039;-68
2022/03/17 15:53:08;;;;;;;0.52;0.30;;;13.80;61.50;;;;;;5115435;28;20115;-69
2022/03/17 15:55:35;;;;;;;0.25;0.20;;;13.80;61.30;;;;;;5132832;28;20027;-67
2022/03/17 15:58:00;;;;;;;1.35;0.50;;;13.80;61.30;;;;;;5112991;28;20121;-69
2022/03/17 16:00:29;;;;;;;0.95;0.30;;;13.70;61.30;;;;;;5114393;28;20067;-69
2022/03/17 16:02:59;;;;;;;0.68;0.25;;;13.60;61.50;;;;;;5132884;28;20039;-68
2022/03/17 16:05:27;;;;;;;1.35;0.40;;;13.50;61.70;;;;;;5097336;28;20130;-69
2022/03/17 16:07:53;;;;;;;0.52;0.30;;;13.50;61.60;;;;;;5133260;28;20051;-68
2022/03/17 16:15:41;;;;;;;1.05;0.30;;;13.40;61.40;;;;;;5132760;28;20050;-68
2022/03/17 16:18:08;;;;;;;0.50;0.40;;;13.30;61.20;;;;;;5132492;28;20077;-68
2022/03/17 16:20:34;;;;;;;0.43;0.30;;;13.20;61.80;;;;;;5133326;28;20041;-68
2022/03/17 16:23:01;;;;;;;1.00;0.30;;;13.10;61.30;;;;;;5133214;28;20038;-67
2022/03/17 16:25:27;;;;;;;1.50;0.40;;;13.10;61.40;;;;;;5132510;28;20493;-68
2022/03/17 16:27:53;;;;;;;0.68;0.17;;;13.10;61.50;;;;;;5097391;28;20082;-67
2022/03/17 16:30:20;;;;;;;0.88;0.35;;;13.00;61.50;;;;;;5112231;28;20071;-68
2022/03/17 16:32:46;;;;;;;0.73;0.22;;;13.20;61.40;;;;;;5131534;28;20043;-68
2022/03/17 16:35:15;;;;;;;0.55;0.25;;;13.30;60.90;;;;;;5132567;28;20115;-68
2022/03/17 16:37:42;;;;;;;1.20;0.40;;;13.50;60.40;;;;;;5114695;28;20046;-67
2022/03/17 16:40:09;;;;;;;1.00;0.30;;;13.60;60.20;;;;;;5135099;27;20045;-68
2022/03/17 16:42:35;;;;;;;0.20;0.20;;;13.80;59.80;;;;;;5117780;28;20046;-68
2022/03/17 16:45:01;;;;;;;0.90;0.20;;;14.10;59.30;;;;;;5136476;28;20462;-68
2022/03/17 16:47:27;;;;;;;0.80;0.25;;;14.30;58.70;;;;;;5100836;28;20533;-69
2022/03/17 16:49:52;;;;;;;0.40;0.20;;;14.40;59.00;;;;;;5117434;28;20512;-67
2022/03/17 16:52:19;;;;;;;0.20;0.20;;;14.70;59.00;;;;;;5135748;28;20044;-68
2022/03/17 16:54:45;;;;;;;0.43;0.20;;;15.10;58.10;;;;;;5135948;28;20146;-68
2022/03/17 16:57:12;;;;;;;0.73;0.30;;;15.40;57.90;;;;;;5136399;28;20043;-68
2022/03/17 16:59:38;;;;;;;0.80;0.30;;;15.30;56.60;;;;;;5136164;28;20059;-67
2022/03/17 17:02:06;;;;;;;0.50;0.38;;;15.10;56.90;;;;;;5135875;28;20087;-68
2022/03/17 17:04:33;;;;;;;0.95;0.28;;;15.00;57.60;;;;;;5135565;28;20035;-67
2022/03/17 17:06:59;;;;;;;0.45;0.20;;;14.80;57.70;;;;;;5117648;28;20073;-67
2022/03/17 17:09:25;;;;;;;0.60;0.20;;;14.60;58.20;;;;;;5135609;28;20047;-67
2022/03/17 17:11:51;;;;;;;0.20;0.20;;;14.40;58.20;;;;;;5117704;28;20039;-68
2022/03/17 17:14:18;;;;;;;0.30;0.20;;;14.20;58.50;;;;;;5136179;28;20059;-67
2022/03/17 17:16:57;;;;;;;0.20;0.20;;;13.90;58.80;;;;;;5135791;28;20092;-67
2022/03/17 17:19:24;;;;;;;1.48;0.47;;;13.60;59.60;;;;;;5135854;28;20190;-67
2022/03/17 17:21:52;;;;;;;1.48;0.30;;;13.30;60.20;;;;;;5135330;28;20485;-67
2022/03/17 17:32:22;;;;;;;0.45;0.30;;;12.20;62.20;;;;;;5135304;28;20047;-67
2022/03/17 17:34:47;;;;;;;1.05;0.30;;;12.00;62.50;;;;;;5115414;28;20040;-67
2022/03/17 17:37:13;;;;;;;0.30;0.20;;;11.80;62.70;;;;;;5135459;28;20504;-67
2022/03/17 17:39:39;;;;;;;0.20;0.20;;;11.70;63.00;;;;;;5099020;28;20118;-67
2022/03/17 17:42:09;;;;;;;0.35;0.30;;;11.50;63.70;;;;;;5116890;28;20099;-67
2022/03/17 17:44:34;;;;;;;1.00;0.30;;;11.40;63.30;;;;;;5135844;28;20043;-67
2022/03/17 17:47:00;;;;;;;0.80;0.28;;;11.30;63.40;;;;;;5135269;28;20520;-67
2022/03/17 17:49:26;;;;;;;0.93;0.30;;;11.20;63.60;;;;;;5134919;27;20031;-67
2022/03/17 17:51:51;;;;;;;0.10;0.10;;;11.10;63.80;;;;;;5116661;28;20043;-67
2022/03/17 17:54:17;;;;;;;0.20;0.20;;;11.00;63.80;;;;;;5135221;28;20031;-67
2022/03/17 17:56:43;;;;;;;0.30;0.22;;;10.80;63.80;;;;;;5135362;28;20066;-67
2022/03/17 17:59:10;;;;;;;0.10;0.10;;;10.80;63.90;;;;;;5134923;28;20485;-67
2022/03/17 18:01:39;;;;;;;0.20;0.20;;;10.70;63.90;;;;;;5135213;28;20043;-67
2022/03/17 18:04:06;;;;;;;0.25;0.20;;;10.70;64.00;;;;;;5135122;28;20119;-69
2022/03/17 18:06:33;;;;;;;0.43;0.20;;;10.60;64.00;;;;;;5116314;28;20051;-67
2022/03/17 18:08:59;;;;;;;0.20;0.20;;;10.50;64.20;;;;;;5134611;28;20047;-68
2022/03/17 18:11:25;;;;;;;0.35;0.20;;;10.40;64.20;;;;;;5116496;28;20042;-67
2022/03/17 18:13:51;;;;;;;0.20;0.10;;;10.30;64.20;;;;;;5135119;28;20101;-68
2022/03/17 18:16:17;;;;;;;0.65;0.20;;;10.30;64.30;;;;;;5115928;28;20039;-68
2022/03/17 18:18:43;;;;;;;0.60;0.20;;;10.20;64.30;;;;;;5135116;28;20047;-68